RWZ4588 HESH-UWPS
Flight info
| Callsign | RWZ4588 |
|---|---|
| Flight time | N/A |
| Altitude | 36000 |
| Route | N0450F360 NOVPA M690 ULINA M319 SESMO M690 ZELAF A412 TAN B544 TUSYR UB36 GAZ UW701 EZS UW88 ORHAN UT166 BALON UW88 TBN UR114 TUDEK B950 KARAT L91 NZ B145 ER G128 MOR R720 APVUL T689 TAKIB |
| Aircraft | T204/M-VGDW/C |
Departure
| Time | N/A |
|---|---|
| Airport | Sharm El Sheikh International Airport (HESH) |
Arrival
| Time | 2026-04-21 11:16 |
|---|---|
| Airport | Saransk International Airport (UWPS) |
| Time | Latitude | Longitude | Altitude | Speed | Heading |
|---|---|---|---|---|---|
| 2026-04-21 10:55 | 53.53513 | 45.13847 | 15529 ft | 294 kts | 6° |
| 2026-04-21 10:55 | 53.55518 | 45.14422 | 15017 ft | 294 kts | 5° |
| 2026-04-21 10:55 | 53.57505 | 45.14998 | 14509 ft | 294 kts | 5° |
| 2026-04-21 10:55 | 53.59517 | 45.15579 | 14002 ft | 294 kts | 5° |
| 2026-04-21 10:56 | 53.61527 | 45.16155 | 13496 ft | 294 kts | 5° |
| 2026-04-21 10:56 | 53.63464 | 45.16711 | 13015 ft | 293 kts | 5° |
| 2026-04-21 10:56 | 53.63714 | 45.16783 | 12954 ft | 293 kts | 5° |
| 2026-04-21 10:56 | 53.65733 | 45.17366 | 12447 ft | 293 kts | 5° |
| 2026-04-21 10:57 | 53.67724 | 45.17936 | 11951 ft | 292 kts | 5° |
| 2026-04-21 10:57 | 53.69717 | 45.18510 | 11448 ft | 291 kts | 3° |
| 2026-04-21 10:57 | 53.71688 | 45.19059 | 10990 ft | 289 kts | 5° |
| 2026-04-21 10:57 | 53.73652 | 45.19630 | 10529 ft | 287 kts | 4° |
| 2026-04-21 10:58 | 53.75584 | 45.20196 | 10123 ft | 278 kts | 5° |
| 2026-04-21 10:58 | 53.77422 | 45.20746 | 9538 ft | 261 kts | 5° |
| 2026-04-21 10:58 | 53.79141 | 45.21289 | 9038 ft | 246 kts | 4° |
| 2026-04-21 10:58 | 53.80781 | 45.21808 | 8536 ft | 236 kts | 4° |
| 2026-04-21 10:59 | 53.82371 | 45.22309 | 8039 ft | 228 kts | 4° |
| 2026-04-21 10:59 | 53.83883 | 45.22784 | 7668 ft | 218 kts | 4° |
| 2026-04-21 10:59 | 53.85345 | 45.23243 | 7286 ft | 210 kts | 3° |
| 2026-04-21 10:59 | 53.86778 | 45.23693 | 7001 ft | 211 kts | 3° |
| 2026-04-21 11:00 | 53.88227 | 45.24139 | 6684 ft | 216 kts | 3° |
| 2026-04-21 11:00 | 53.89724 | 45.24654 | 6358 ft | 223 kts | 11° |
| 2026-04-21 11:00 | 53.91163 | 45.25723 | 6054 ft | 231 kts | 21° |
| 2026-04-21 11:00 | 53.92551 | 45.26982 | 5662 ft | 223 kts | 22° |
| 2026-04-21 11:01 | 53.93870 | 45.28207 | 5370 ft | 212 kts | 22° |
| 2026-04-21 11:01 | 53.95171 | 45.29402 | 5169 ft | 213 kts | 21° |
| 2026-04-21 11:01 | 53.96470 | 45.30599 | 4966 ft | 213 kts | 21° |
| 2026-04-21 11:02 | 53.99100 | 45.33020 | 4558 ft | 210 kts | 22° |
| 2026-04-21 11:02 | 54.00346 | 45.34177 | 4341 ft | 203 kts | 21° |
| 2026-04-21 11:02 | 54.01579 | 45.35321 | 4065 ft | 200 kts | 21° |
| 2026-04-21 11:02 | 54.02791 | 45.36440 | 3798 ft | 197 kts | 20° |
| 2026-04-21 11:03 | 54.03959 | 45.37526 | 3630 ft | 190 kts | 21° |
| 2026-04-21 11:03 | 54.05116 | 45.38604 | 3455 ft | 184 kts | 20° |
| 2026-04-21 11:03 | 54.06214 | 45.39626 | 3296 ft | 179 kts | 20° |
| 2026-04-21 11:03 | 54.07296 | 45.40637 | 3140 ft | 175 kts | 20° |
| 2026-04-21 11:04 | 54.08343 | 45.41612 | 3007 ft | 170 kts | 20° |
| 2026-04-21 11:04 | 54.09379 | 45.42574 | 2976 ft | 170 kts | 20° |
| 2026-04-21 11:04 | 54.10419 | 45.43542 | 2997 ft | 173 kts | 20° |
| 2026-04-21 11:04 | 54.11478 | 45.44528 | 2985 ft | 174 kts | 20° |
| 2026-04-21 11:05 | 54.12541 | 45.45516 | 2985 ft | 176 kts | 21° |
| 2026-04-21 11:05 | 54.13628 | 45.46530 | 3008 ft | 180 kts | 20° |
| 2026-04-21 11:05 | 54.14735 | 45.47567 | 2992 ft | 180 kts | 21° |
| 2026-04-21 11:05 | 54.15824 | 45.48590 | 2978 ft | 179 kts | 21° |
| 2026-04-21 11:06 | 54.16914 | 45.49620 | 2974 ft | 179 kts | 21° |
| 2026-04-21 11:06 | 54.18002 | 45.50644 | 2984 ft | 178 kts | 21° |
| 2026-04-21 11:06 | 54.19087 | 45.51669 | 2977 ft | 179 kts | 21° |
| 2026-04-21 11:06 | 54.20164 | 45.52699 | 2977 ft | 179 kts | 20° |
| 2026-04-21 11:07 | 54.21245 | 45.53730 | 2990 ft | 178 kts | 21° |
| 2026-04-21 11:07 | 54.22337 | 45.54738 | 3096 ft | 170 kts | 14° |
| 2026-04-21 11:07 | 54.23483 | 45.55059 | 3347 ft | 170 kts | 348° |
| 2026-04-21 11:07 | 54.24589 | 45.54519 | 3167 ft | 163 kts | 326° |
| 2026-04-21 11:08 | 54.25398 | 45.53377 | 3171 ft | 146 kts | 306° |
| 2026-04-21 11:08 | 54.25984 | 45.51994 | 3085 ft | 140 kts | 302° |
| 2026-04-21 11:08 | 54.26495 | 45.50661 | 2903 ft | 130 kts | 299° |
| 2026-04-21 11:08 | 54.26994 | 45.49314 | 2758 ft | 135 kts | 299° |
| 2026-04-21 11:09 | 54.27503 | 45.47933 | 2589 ft | 132 kts | 301° |
| 2026-04-21 11:09 | 54.27978 | 45.46687 | 2413 ft | 116 kts | 298° |
| 2026-04-21 11:09 | 54.28402 | 45.45578 | 2479 ft | 112 kts | 298° |
| 2026-04-21 11:09 | 54.28820 | 45.44475 | 2481 ft | 111 kts | 298° |
| 2026-04-21 11:10 | 54.29237 | 45.43308 | 2514 ft | 115 kts | 292° |
| 2026-04-21 11:10 | 54.29363 | 45.42094 | 2486 ft | 116 kts | 268° |
| 2026-04-21 11:10 | 54.29131 | 45.40767 | 2493 ft | 121 kts | 245° |
| 2026-04-21 11:10 | 54.28550 | 45.39693 | 2481 ft | 126 kts | 226° |
| 2026-04-21 11:11 | 54.27853 | 45.38766 | 2483 ft | 126 kts | 225° |
| 2026-04-21 11:11 | 54.27140 | 45.37875 | 2493 ft | 127 kts | 224° |
| 2026-04-21 11:11 | 54.26420 | 45.36998 | 2494 ft | 127 kts | 224° |
| 2026-04-21 11:11 | 54.25704 | 45.36139 | 2486 ft | 128 kts | 223° |
| 2026-04-21 11:12 | 54.24975 | 45.35233 | 2488 ft | 128 kts | 224° |
| 2026-04-21 11:12 | 54.24498 | 45.34641 | 2487 ft | 129 kts | 224° |
| 2026-04-21 11:12 | 54.23513 | 45.33448 | 2476 ft | 129 kts | 223° |
| 2026-04-21 11:12 | 54.23023 | 45.32872 | 2482 ft | 130 kts | 222° |
| 2026-04-21 11:13 | 54.22260 | 45.32032 | 2490 ft | 130 kts | 221° |
| 2026-04-21 11:13 | 54.21246 | 45.30917 | 2481 ft | 129 kts | 222° |
| 2026-04-21 11:13 | 54.20733 | 45.30351 | 2382 ft | 132 kts | 221° |
| 2026-04-21 11:13 | 54.19718 | 45.29226 | 2150 ft | 129 kts | 222° |
| 2026-04-21 11:14 | 54.18978 | 45.28402 | 1973 ft | 127 kts | 221° |
| 2026-04-21 11:14 | 54.18240 | 45.27582 | 1797 ft | 126 kts | 222° |
| 2026-04-21 11:14 | 54.17502 | 45.26769 | 1634 ft | 125 kts | 219° |
| 2026-04-21 11:14 | 54.16776 | 45.25965 | 1453 ft | 126 kts | 221° |
| 2026-04-21 11:15 | 54.16039 | 45.25153 | 1272 ft | 124 kts | 219° |
| 2026-04-21 11:15 | 54.15309 | 45.24344 | 1095 ft | 125 kts | 220° |
| 2026-04-21 11:15 | 54.14823 | 45.23807 | 975 ft | 125 kts | 219° |
| 2026-04-21 11:15 | 54.13854 | 45.22738 | 745 ft | 126 kts | 218° |
| 2026-04-21 11:16 | 54.13107 | 45.21927 | 671 ft | 123 kts | 219° |
| 2026-04-21 11:16 | 54.12614 | 45.21351 | 676 ft | 42 kts | 214° |
| 2026-04-21 11:16 | 54.12474 | 45.21189 | 677 ft | 8 kts | 186° |
| 2026-04-21 11:16 | 54.12468 | 45.21222 | 677 ft | 4 kts | 32° |
| 2026-04-21 11:17 | 54.12495 | 45.21248 | 677 ft | 4 kts | 28° |
| 2026-04-21 11:17 | 54.12545 | 45.21294 | 676 ft | 13 kts | 28° |
| 2026-04-21 11:17 | 54.12665 | 45.21417 | 675 ft | 26 kts | 33° |
| 2026-04-21 11:17 | 54.12850 | 45.21624 | 674 ft | 37 kts | 32° |
| 2026-04-21 11:18 | 54.13071 | 45.21868 | 669 ft | 34 kts | 36° |
| 2026-04-21 11:18 | 54.13217 | 45.21846 | 666 ft | 19 kts | 301° |
| 2026-04-21 11:18 | 54.13281 | 45.21663 | 664 ft | 18 kts | 298° |
| 2026-04-21 11:18 | 54.13364 | 45.21532 | 657 ft | 14 kts | 19° |
| 2026-04-21 11:19 | 54.13449 | 45.21617 | 657 ft | 13 kts | 30° |
| 2026-04-21 11:19 | 54.13524 | 45.21698 | 657 ft | 7 kts | 34° |
| 2026-04-21 11:19 | 54.13525 | 45.21700 | 657 ft | 0 kts | 33° |
| 2026-04-21 11:20 | 54.13542 | 45.21719 | 657 ft | 6 kts | 33° |
| 2026-04-21 11:21 | 54.13593 | 45.21777 | 656 ft | 9 kts | 25° |
| 2026-04-21 11:21 | 54.13633 | 45.21749 | 655 ft | 4 kts | 297° |
| 2026-04-21 11:21 | 54.13638 | 45.21738 | 655 ft | 0 kts | 301° |
| 2026-04-21 11:21 | 54.13638 | 45.21737 | 655 ft | 0 kts | 302° |